Venividivici — ZCPL9 — position and weather

sailwx.info

Track history (hours):
 
Tides and Currents Weather Stations Pressure Air Temp Water Temp Dewpoint Dewpoint Depression Visibility Wind Speed Wind Dir Waves Ship Positions

Venividivici

Last reported at 2017-Jun-26 08:20 UTC. Time now 2017-Jun-26 19:18 UTC.
Position N 43°33' E 007°02'.

Length 40 m; draft 2 m.

MMSI: 319081000.

Date/timePositionNaut miles runAvg speedWind from/ knotsBaromVisibWave heightAir tempDewpointWater temp
2017-Jun-26 08:20N 43°33' E 007°02'0 0.0
2017-Jun-25 03:42N 43°33' E 007°02'0 0.0
2017-Jun-25 03:12N 43°33' E 007°02'0 0.0
2017-Jun-25 02:57N 43°33' E 007°02'0 0.0
2017-Jun-25 02:28N 43°33' E 007°02'0 0.0
2017-Jun-23 01:28N 43°33' E 007°02'0 0.0
2017-Jun-23 00:58N 43°33' E 007°02'0 0.0
2017-Jun-21 22:26N 43°33' E 007°02'6 0.5
2017-Jun-21 11:51N 43°28' E 006°58'821.0
2017-Jun-21 11:28N 43°33' E 007°06'2 0.5
2017-Jun-21 07:10N 43°32' E 007°04'2 8.3
2017-Jun-21 06:59N 43°32' E 007°02'0 0.0
2017-Jun-20 08:27N 43°33' E 007°02'0 0.0
2017-Jun-20 03:13N 43°33' E 007°02'0 0.0
2017-Jun-19 03:35N 43°33' E 007°02'0 0.0
2017-Jun-19 03:29N 43°33' E 007°02'0 0.0
2017-Jun-19 02:59N 43°33' E 007°02'0 0.0
2017-Jun-19 02:23N 43°33' E 007°02'0 0.0
2017-Jun-19 00:37N 43°33' E 007°02'0 0.0
2017-Jun-17 22:12N 43°33' E 007°02'0 0.0
2017-Jun-17 21:57N 43°33' E 007°02'0 0.0
2017-Jun-17 21:10N 43°33' E 007°02'0 0.0
2017-Jun-17 20:52N 43°33' E 007°02'0 0.0
2017-Jun-17 15:23N 43°33' E 007°02'0 0.0
2017-Jun-17 14:59N 43°33' E 007°02'0 0.0
2017-Jun-17 14:20N 43°33' E 007°02'0 0.0
2017-Jun-17 13:18N 43°33' E 007°02'0 0.0
2017-Jun-17 12:54N 43°33' E 007°02'0 0.0
2017-Jun-17 10:14N 43°33' E 007°02'0 0.0
2017-Jun-17 09:15N 43°33' E 007°02'0 0.0
2017-Jun-17 07:52N 43°33' E 007°02'0 0.0
2017-Jun-17 07:16N 43°33' E 007°02'0 0.0
2017-Jun-17 06:58N 43°33' E 007°02'0 0.0
2017-Jun-17 06:23N 43°33' E 007°02'0 0.0
2017-Jun-16 15:42N 43°33' E 007°02'1 2.7
2017-Jun-16 15:30N 43°32' E 007°02'1 1.8
2017-Jun-16 14:52N 43°32' E 007°03'0 0.0
2017-Jun-16 14:25N 43°32' E 007°03'0 0.0
2017-Jun-16 10:43N 43°32' E 007°03'0 0.0
2017-Jun-16 10:22N 43°32' E 007°03'0 0.0
2017-Jun-16 08:53N 43°32' E 007°03'0 0.0
2017-Jun-16 08:29N 43°32' E 007°03'  
Track history (hours):
 
Tides and Currents Weather Stations Pressure Air Temp Water Temp Dewpoint Dewpoint Depression Visibility Wind Speed Wind Dir Waves Ship Positions

Venividivici

Last reported at 2017-Jun-26 08:20 UTC. Time now 2017-Jun-26 19:18 UTC.
Position N 43°33' E 007°02'.

Length 40 m; draft 2 m.

MMSI: 319081000.

Date/timePositionNaut miles runAvg speedWind from/ knotsBaromVisibWave heightAir tempDewpointWater temp
2017-Jun-26 08:20N 43°33' E 007°02'0 0.0
2017-Jun-25 03:42N 43°33' E 007°02'0 0.0
2017-Jun-25 03:12N 43°33' E 007°02'0 0.0
2017-Jun-25 02:57N 43°33' E 007°02'0 0.0
2017-Jun-25 02:28N 43°33' E 007°02'0 0.0
2017-Jun-23 01:28N 43°33' E 007°02'0 0.0
2017-Jun-23 00:58N 43°33' E 007°02'0 0.0
2017-Jun-21 22:26N 43°33' E 007°02'6 0.5
2017-Jun-21 11:51N 43°28' E 006°58'821.0
2017-Jun-21 11:28N 43°33' E 007°06'2 0.5
2017-Jun-21 07:10N 43°32' E 007°04'2 8.3
2017-Jun-21 06:59N 43°32' E 007°02'0 0.0
2017-Jun-20 08:27N 43°33' E 007°02'0 0.0
2017-Jun-20 03:13N 43°33' E 007°02'0 0.0
2017-Jun-19 03:35N 43°33' E 007°02'0 0.0
2017-Jun-19 03:29N 43°33' E 007°02'0 0.0
2017-Jun-19 02:59N 43°33' E 007°02'0 0.0
2017-Jun-19 02:23N 43°33' E 007°02'0 0.0
2017-Jun-19 00:37N 43°33' E 007°02'0 0.0
2017-Jun-17 22:12N 43°33' E 007°02'0 0.0
2017-Jun-17 21:57N 43°33' E 007°02'0 0.0
2017-Jun-17 21:10N 43°33' E 007°02'0 0.0
2017-Jun-17 20:52N 43°33' E 007°02'0 0.0
2017-Jun-17 15:23N 43°33' E 007°02'0 0.0
2017-Jun-17 14:59N 43°33' E 007°02'0 0.0
2017-Jun-17 14:20N 43°33' E 007°02'0 0.0
2017-Jun-17 13:18N 43°33' E 007°02'0 0.0
2017-Jun-17 12:54N 43°33' E 007°02'0 0.0
2017-Jun-17 10:14N 43°33' E 007°02'0 0.0
2017-Jun-17 09:15N 43°33' E 007°02'0 0.0
2017-Jun-17 07:52N 43°33' E 007°02'0 0.0
2017-Jun-17 07:16N 43°33' E 007°02'0 0.0
2017-Jun-17 06:58N 43°33' E 007°02'0 0.0
2017-Jun-17 06:23N 43°33' E 007°02'0 0.0
2017-Jun-16 15:42N 43°33' E 007°02'1 2.7
2017-Jun-16 15:30N 43°32' E 007°02'1 1.8
2017-Jun-16 14:52N 43°32' E 007°03'0 0.0
2017-Jun-16 14:25N 43°32' E 007°03'0 0.0
2017-Jun-16 10:43N 43°32' E 007°03'0 0.0
2017-Jun-16 10:22N 43°32' E 007°03'0 0.0
2017-Jun-16 08:53N 43°32' E 007°03'0 0.0
2017-Jun-16 08:29N 43°32' E 007°03'  

Dump ship's entire track history